Time;durP1;ratioP1;P1;durP2;ratioP2;P2;SDS_P1;SDS_P2;PMS_P1;PMS_P2;Temp;Humidity;BMP_temperature;BMP_pressure;BME280_temperature;BME280_humidity;BME280_pressure;Samples;Min_cycle;Max_cycle;Signal;HPM_P1;HPM_P2
2023/03/26 00:00:55;;;;;;;;;;;10.00;99.90;;;;;;5121123;27;19912;-65
2023/03/26 00:03:21;;;;;;;;;;;10.00;99.90;;;;;;5119666;27;20379;-65
2023/03/26 00:05:47;;;;;;;;;;;10.10;99.90;;;;;;5131432;27;20014;-64
2023/03/26 00:08:14;;;;;;;;;;;10.10;99.90;;;;;;5123701;27;19918;-64
2023/03/26 00:10:40;;;;;;;;;;;10.10;99.90;;;;;;5123992;27;19923;-64
2023/03/26 00:13:05;;;;;;;;;;;10.10;99.90;;;;;;5123007;27;19919;-64
2023/03/26 00:15:31;;;;;;;;;;;10.10;99.90;;;;;;5127145;27;19912;-65
2023/03/26 00:17:59;;;;;;;;;;;10.10;99.90;;;;;;5126088;27;19965;-65
2023/03/26 00:20:28;;;;;;;;;;;10.20;99.90;;;;;;5121179;27;19918;-64
2023/03/26 00:22:54;;;;;;;;;;;10.10;99.90;;;;;;5127420;27;19911;-65
2023/03/26 00:25:21;;;;;;;;;;;10.20;99.90;;;;;;5123724;27;19912;-65
2023/03/26 00:27:48;;;;;;;;;;;10.30;99.90;;;;;;5123627;27;19997;-65
2023/03/26 00:30:15;;;;;;;;;;;10.30;99.90;;;;;;5131960;27;19912;-66
2023/03/26 00:32:41;;;;;;;;;;;10.30;99.90;;;;;;5127154;27;19912;-65
2023/03/26 00:35:07;;;;;;;;;;;10.30;99.90;;;;;;5126642;27;20377;-65
2023/03/26 00:37:32;;;;;;;;;;;10.30;99.90;;;;;;5131473;27;19916;-65
2023/03/26 00:40:01;;;;;;;;;;;10.30;99.90;;;;;;5128461;27;19964;-64
2023/03/26 00:42:27;;;;;;;;;;;10.30;99.90;;;;;;5129730;27;19934;-64
2023/03/26 00:44:56;;;;;;;;;;;10.30;99.90;;;;;;4618254;27;19930;-65
2023/03/26 00:47:26;;;;;;;;;;;10.30;99.90;;;;;;5121554;27;19919;-65
2023/03/26 00:49:52;;;;;;;;;;;10.30;99.90;;;;;;5131299;27;19953;-65
2023/03/26 00:52:18;;;;;;;;;;;10.30;99.90;;;;;;5127559;27;19959;-66
2023/03/26 00:55:15;;;;;;;;;;;10.20;99.90;;;;;;5120332;27;19915;-66
2023/03/26 00:57:40;;;;;;;;;;;10.20;99.90;;;;;;5120547;27;19915;-66
2023/03/26 01:00:09;;;;;;;;;;;10.10;99.90;;;;;;5126385;27;19942;-66
2023/03/26 01:02:34;;;;;;;;;;;10.10;99.90;;;;;;5127717;27;20367;-65
2023/03/26 01:05:20;;;;;;;;;;;10.10;99.90;;;;;;5115432;27;20053;-64
2023/03/26 01:07:46;;;;;;;;;;;10.00;99.90;;;;;;5124079;27;19911;-65
2023/03/26 01:10:13;;;;;;;;;;;10.10;99.90;;;;;;5121635;27;20011;-65
2023/03/26 01:12:39;;;;;;;;;;;10.10;99.90;;;;;;5118882;27;19934;-64
2023/03/26 01:15:07;;;;;;;;;;;10.00;99.90;;;;;;5127710;27;20363;-64
2023/03/26 01:17:36;;;;;;;;;;;10.00;99.90;;;;;;5120625;27;20008;-64
2023/03/26 01:20:18;;;;;;;;;;;10.00;99.90;;;;;;5119744;27;20015;-63
2023/03/26 01:22:46;;;;;;;;;;;9.90;99.90;;;;;;5129304;27;19916;-63
2023/03/26 01:25:12;;;;;;;;;;;9.90;99.90;;;;;;5117805;27;20482;-64
2023/03/26 01:28:04;;;;;;;;;;;9.90;99.90;;;;;;5120916;27;20041;-64
2023/03/26 01:30:30;;;;;;;;;;;9.80;99.90;;;;;;5100720;27;19911;-64
2023/03/26 01:32:56;;;;;;;;;;;9.70;99.90;;;;;;5128615;27;19938;-64
2023/03/26 01:35:22;;;;;;;;;;;9.70;99.90;;;;;;5121044;27;20062;-64
2023/03/26 01:37:51;;;;;;;;;;;9.60;99.90;;;;;;5120658;27;19924;-64
2023/03/26 01:40:22;;;;;;;;;;;9.60;99.90;;;;;;5119867;27;19919;-64
2023/03/26 01:42:55;;;;;;;;;;;9.60;99.90;;;;;;5119615;27;19918;-65
2023/03/26 01:45:24;;;;;;;;;;;9.50;99.90;;;;;;5116901;27;19930;-64
2023/03/26 01:47:50;;;;;;;;;;;9.40;99.90;;;;;;5123771;27;19916;-64
2023/03/26 01:50:16;;;;;;;;;;;9.30;99.90;;;;;;5114450;28;20010;-64
2023/03/26 01:52:41;;;;;;;;;;;9.20;99.90;;;;;;5127711;28;19957;-64
2023/03/26 01:55:10;;;;;;;;;;;9.30;99.90;;;;;;5125979;27;20256;-64
2023/03/26 01:57:46;;;;;;;;;;;9.30;99.90;;;;;;5122228;28;19923;-64
2023/03/26 02:00:30;;;;;;;;;;;9.40;99.90;;;;;;5126528;28;19911;-64
2023/03/26 02:02:58;;;;;;;;;;;9.50;99.90;;;;;;5123043;28;19911;-64
2023/03/26 02:05:27;;;;;;;;;;;9.50;99.90;;;;;;5120067;27;19912;-63
2023/03/26 02:08:04;;;;;;;;;;;9.40;99.90;;;;;;5127968;27;19911;-64
2023/03/26 02:10:34;;;;;;;;;;;9.30;99.90;;;;;;5116631;27;20371;-64
2023/03/26 02:13:00;;;;;;;;;;;9.30;99.90;;;;;;5127305;28;19959;-63
2023/03/26 02:15:26;;;;;;;;;;;9.20;99.90;;;;;;5126329;27;19912;-64
2023/03/26 02:17:52;;;;;;;;;;;9.20;99.90;;;;;;5122279;28;19916;-64
2023/03/26 02:20:19;;;;;;;;;;;9.20;99.90;;;;;;5123740;27;19912;-64
2023/03/26 02:22:46;;;;;;;;;;;9.20;99.90;;;;;;5126785;27;19911;-64
2023/03/26 02:25:14;;;;;;;;;;;9.10;99.90;;;;;;5128449;27;19967;-64
2023/03/26 02:27:40;;;;;;;;;;;9.20;99.90;;;;;;5127344;27;19916;-64
2023/03/26 02:30:07;;;;;;;;;;;9.10;99.90;;;;;;5133557;27;19934;-63
2023/03/26 02:32:33;;;;;;;;;;;9.20;99.90;;;;;;5107377;27;19919;-64
2023/03/26 02:35:00;;;;;;;;;;;9.10;99.90;;;;;;5131500;27;19920;-65
2023/03/26 02:37:26;;;;;;;;;;;9.10;99.90;;;;;;5131163;27;20385;-65
2023/03/26 02:39:51;;;;;;;;;;;9.10;99.90;;;;;;5127647;27;19911;-64
2023/03/26 02:42:17;;;;;;;;;;;9.00;99.90;;;;;;5111170;27;20294;-65
2023/03/26 02:44:43;;;;;;;;;;;9.00;99.90;;;;;;5125901;27;19919;-64
2023/03/26 02:47:08;;;;;;;;;;;9.00;99.90;;;;;;5119069;27;19912;-64
2023/03/26 02:49:34;;;;;;;;;;;8.90;99.90;;;;;;5126938;27;20320;-64
2023/03/26 02:52:05;;;;;;;;;;;8.90;99.90;;;;;;5121715;27;19915;-64
2023/03/26 02:54:31;;;;;;;;;;;8.90;99.90;;;;;;5120762;27;19938;-65
2023/03/26 02:56:56;;;;;;;;;;;8.90;99.90;;;;;;5124533;27;19942;-64
2023/03/26 02:59:22;;;;;;;;;;;8.80;99.90;;;;;;5142096;27;20292;-64
2023/03/26 03:01:47;;;;;;;;;;;8.90;99.90;;;;;;5132181;27;19922;-64
2023/03/26 03:04:13;;;;;;;;;;;8.90;99.90;;;;;;5128120;27;20332;-64
2023/03/26 03:06:39;;;;;;;;;;;8.90;99.90;;;;;;5130603;27;19966;-65
2023/03/26 03:09:06;;;;;;;;;;;8.90;99.90;;;;;;5127354;27;19919;-64
2023/03/26 03:11:31;;;;;;;;;;;8.80;99.90;;;;;;5127603;27;19915;-64
2023/03/26 03:13:57;;;;;;;;;;;8.80;99.90;;;;;;5124085;27;19963;-65
2023/03/26 03:16:22;;;;;;;;;;;8.80;99.90;;;;;;5118643;27;19919;-65
2023/03/26 03:18:53;;;;;;;;;;;8.70;99.90;;;;;;5125315;27;20002;-64
2023/03/26 03:21:22;;;;;;;;;;;8.70;99.90;;;;;;5123433;27;19926;-65
2023/03/26 03:23:48;;;;;;;;;;;8.70;99.90;;;;;;5125678;27;19972;-66
2023/03/26 03:26:14;;;;;;;;;;;8.70;99.90;;;;;;5124818;27;19978;-65
2023/03/26 03:28:40;;;;;;;;;;;8.60;99.90;;;;;;5122228;27;19915;-65
2023/03/26 03:31:07;;;;;;;;;;;8.60;99.90;;;;;;5122729;27;19919;-65
2023/03/26 03:33:33;;;;;;;;;;;8.60;99.90;;;;;;5124559;27;19920;-64
2023/03/26 03:35:59;;;;;;;;;;;8.50;99.90;;;;;;5123924;27;19911;-65
2023/03/26 03:38:24;;;;;;;;;;;8.40;99.90;;;;;;5122126;27;19938;-65
2023/03/26 03:40:52;;;;;;;;;;;8.40;99.90;;;;;;5125967;27;19959;-65
2023/03/26 03:43:17;;;;;;;;;;;8.40;99.90;;;;;;5123475;27;19911;-64
2023/03/26 03:45:43;;;;;;;;;;;8.40;99.90;;;;;;5122088;27;19926;-64
2023/03/26 03:48:09;;;;;;;;;;;8.40;99.90;;;;;;5122811;27;19916;-65
2023/03/26 03:50:34;;;;;;;;;;;8.30;99.90;;;;;;5122494;27;20407;-65
2023/03/26 03:53:00;;;;;;;;;;;8.30;99.90;;;;;;5130269;27;20439;-65
2023/03/26 03:55:26;;;;;;;;;;;8.20;99.90;;;;;;5105662;27;19920;-65
2023/03/26 03:57:52;;;;;;;;;;;8.20;99.90;;;;;;5124047;27;19972;-65
2023/03/26 04:00:18;;;;;;;;;;;8.20;99.90;;;;;;5126807;27;19911;-64
2023/03/26 04:02:44;;;;;;;;;;;8.20;99.90;;;;;;5107620;27;20286;-65
2023/03/26 04:05:10;;;;;;;;;;;8.10;99.90;;;;;;5122728;27;19923;-64
2023/03/26 04:07:36;;;;;;;;;;;8.00;99.90;;;;;;5128742;27;20293;-65
2023/03/26 04:10:02;;;;;;;;;;;8.00;99.90;;;;;;5121231;27;19916;-65
2023/03/26 04:12:29;;;;;;;;;;;8.00;99.90;;;;;;5125216;27;20006;-67
2023/03/26 04:14:55;;;;;;;;;;;8.00;99.90;;;;;;5131280;27;19915;-66
2023/03/26 04:17:21;;;;;;;;;;;8.00;99.90;;;;;;5129408;27;20030;-67
2023/03/26 04:19:47;;;;;;;;;;;8.00;99.90;;;;;;5127031;27;19960;-64
2023/03/26 04:22:13;;;;;;;;;;;8.00;99.90;;;;;;5124776;27;19919;-65
2023/03/26 04:24:39;;;;;;;;;;;8.00;99.90;;;;;;5132090;27;19911;-64
2023/03/26 04:27:05;;;;;;;;;;;8.00;99.90;;;;;;5122131;27;19934;-63
2023/03/26 04:29:37;;;;;;;;;;;8.00;99.90;;;;;;5127531;27;20388;-64
2023/03/26 04:32:05;;;;;;;;;;;7.90;99.90;;;;;;5122873;27;20029;-65
2023/03/26 04:34:32;;;;;;;;;;;7.90;99.90;;;;;;5126769;27;20282;-64
2023/03/26 04:37:00;;;;;;;;;;;7.90;99.90;;;;;;5126024;27;19918;-64
2023/03/26 04:39:28;;;;;;;;;;;7.90;99.90;;;;;;5121819;27;19927;-64
2023/03/26 04:41:54;;;;;;;;;;;7.90;99.90;;;;;;5126233;27;19918;-64
2023/03/26 04:44:21;;;;;;;;;;;8.00;99.90;;;;;;5127078;27;19930;-65
2023/03/26 04:46:47;;;;;;;;;;;8.00;99.90;;;;;;5126526;27;20263;-66
2023/03/26 04:49:13;;;;;;;;;;;7.90;99.90;;;;;;5124844;27;20002;-66
2023/03/26 04:51:40;;;;;;;;;;;7.90;99.90;;;;;;5129180;27;20446;-65
2023/03/26 04:54:07;;;;;;;;;;;8.00;99.90;;;;;;5124590;27;20294;-64
2023/03/26 04:56:47;;;;;;;;;;;8.00;99.90;;;;;;5127735;27;19919;-65
2023/03/26 04:59:16;;;;;;;;;;;8.00;99.90;;;;;;5122465;27;20010;-64
2023/03/26 05:01:44;;;;;;;;;;;7.90;99.90;;;;;;5127587;27;19918;-65
2023/03/26 05:04:12;;;;;;;;;;;7.80;99.90;;;;;;5123811;27;19916;-65
2023/03/26 05:06:39;;;;;;;;;;;7.80;99.90;;;;;;5128497;27;19911;-64
2023/03/26 05:09:05;;;;;;;;;;;7.70;99.90;;;;;;5125815;27;20278;-63
2023/03/26 05:11:30;;;;;;;;;;;7.80;99.90;;;;;;5123802;27;19912;-65
2023/03/26 05:13:56;;;;;;;;;;;7.80;99.90;;;;;;5128270;27;19918;-65
2023/03/26 05:16:23;;;;;;;;;;;7.80;99.90;;;;;;5121181;27;19920;-65
2023/03/26 05:18:50;;;;;;;;;;;7.80;99.90;;;;;;5125784;27;19919;-65
2023/03/26 05:21:15;;;;;;;;;;;7.80;99.90;;;;;;5122509;27;20002;-65
2023/03/26 05:23:41;;;;;;;;;;;7.90;99.90;;;;;;5122981;27;20007;-65
2023/03/26 05:26:08;;;;;;;;;;;7.90;99.90;;;;;;5124292;27;20293;-66
2023/03/26 05:28:33;;;;;;;;;;;7.90;99.90;;;;;;5124549;27;19912;-64
2023/03/26 05:31:00;;;;;;;;;;;7.90;99.90;;;;;;5121092;27;20004;-64
2023/03/26 05:33:25;;;;;;;;;;;8.00;99.90;;;;;;5123207;27;19920;-65
2023/03/26 05:35:58;;;;;;;;;;;7.90;99.90;;;;;;5130425;27;19918;-65
2023/03/26 05:38:24;;;;;;;;;;;7.90;99.90;;;;;;5134848;27;20406;-65
2023/03/26 05:40:49;;;;;;;;;;;7.90;99.90;;;;;;5130988;27;19955;-64
2023/03/26 05:43:15;;;;;;;;;;;7.90;99.90;;;;;;5124957;27;19912;-64
2023/03/26 05:45:41;;;;;;;;;;;7.90;99.90;;;;;;5123860;27;20340;-65
2023/03/26 05:48:06;;;;;;;;;;;7.90;99.90;;;;;;5121859;27;19933;-65
2023/03/26 05:50:32;;;;;;;;;;;8.00;99.90;;;;;;5122170;27;19918;-65
2023/03/26 05:52:57;;;;;;;;;;;8.00;99.90;;;;;;5123204;27;20430;-65
2023/03/26 05:55:23;;;;;;;;;;;8.00;99.90;;;;;;5120027;27;20323;-65
2023/03/26 05:57:48;;;;;;;;;;;8.00;99.90;;;;;;5121023;27;19920;-65
2023/03/26 06:00:14;;;;;;;;;;;8.00;99.90;;;;;;5120006;28;19912;-64
2023/03/26 06:02:41;;;;;;;;;;;8.00;99.90;;;;;;5129769;28;19922;-64
2023/03/26 06:05:08;;;;;;;;;;;8.00;99.90;;;;;;5122009;28;20385;-63
2023/03/26 06:07:34;;;;;;;;;;;8.00;99.90;;;;;;5130044;27;19998;-64
2023/03/26 06:10:01;;;;;;;;;;;8.00;99.90;;;;;;5130643;28;20011;-64
2023/03/26 06:12:27;;;;;;;;;;;8.00;99.90;;;;;;5127809;28;19911;-64
2023/03/26 06:14:52;;;;;;;;;;;8.00;99.90;;;;;;5129479;28;19918;-64
2023/03/26 06:17:18;;;;;;;;;;;8.00;99.90;;;;;;5127498;27;19947;-63
2023/03/26 06:19:43;;;;;;;;;;;8.10;99.90;;;;;;5112051;28;19951;-64
2023/03/26 06:22:09;;;;;;;;;;;8.10;99.90;;;;;;5129013;28;19918;-65
2023/03/26 06:24:35;;;;;;;;;;;8.10;99.90;;;;;;5125609;28;20385;-64
2023/03/26 06:27:00;;;;;;;;;;;8.10;99.90;;;;;;5129013;28;19964;-64
2023/03/26 06:29:26;;;;;;;;;;;8.20;99.90;;;;;;5125682;28;19911;-64
2023/03/26 06:31:51;;;;;;;;;;;8.10;99.90;;;;;;5117418;28;19934;-65
2023/03/26 06:34:17;;;;;;;;;;;8.20;99.90;;;;;;5125865;28;19966;-65
2023/03/26 06:36:43;;;;;;;;;;;8.20;99.90;;;;;;5127289;27;20390;-64
2023/03/26 06:39:08;;;;;;;;;;;8.20;99.90;;;;;;5122978;28;20359;-65
2023/03/26 06:41:34;;;;;;;;;;;8.10;99.90;;;;;;5116332;28;20003;-65
2023/03/26 06:44:00;;;;;;;;;;;8.20;99.90;;;;;;5128181;28;19911;-64
2023/03/26 06:46:26;;;;;;;;;;;8.10;99.90;;;;;;5114128;27;20417;-64
2023/03/26 06:48:52;;;;;;;;;;;8.10;99.90;;;;;;5126867;27;19937;-64
2023/03/26 06:51:17;;;;;;;;;;;8.10;99.90;;;;;;5129041;27;19918;-64
2023/03/26 06:53:43;;;;;;;;;;;8.20;99.90;;;;;;5128392;28;19912;-64
2023/03/26 06:56:09;;;;;;;;;;;8.20;99.90;;;;;;5111627;27;19980;-64
2023/03/26 06:58:34;;;;;;;;;;;8.20;99.90;;;;;;5118118;27;20003;-65
2023/03/26 07:01:00;;;;;;;;;;;8.20;99.90;;;;;;5122716;27;19939;-63
2023/03/26 07:03:26;;;;;;;;;;;8.10;99.90;;;;;;5118407;28;19958;-62
2023/03/26 07:05:51;;;;;;;;;;;8.10;99.90;;;;;;5126820;27;19912;-64
2023/03/26 07:08:17;;;;;;;;;;;8.10;99.90;;;;;;5124998;27;19911;-63
2023/03/26 07:10:42;;;;;;;;;;;8.10;99.90;;;;;;5126411;27;20259;-63
2023/03/26 07:13:08;;;;;;;;;;;8.10;99.90;;;;;;5119121;27;20442;-63
2023/03/26 07:15:34;;;;;;;;;;;8.10;99.90;;;;;;5123995;27;19918;-65
2023/03/26 07:18:00;;;;;;;;;;;8.10;99.90;;;;;;5128940;27;19959;-63
2023/03/26 07:20:25;;;;;;;;;;;8.10;99.90;;;;;;5118398;27;19964;-64
2023/03/26 07:22:51;;;;;;;;;;;8.20;99.90;;;;;;5123443;27;19920;-65
2023/03/26 07:25:17;;;;;;;;;;;8.20;99.90;;;;;;5120018;27;20321;-64
2023/03/26 07:27:58;;;;;;;;;;;8.20;99.90;;;;;;5127967;27;19983;-65
2023/03/26 07:30:41;;;;;;;;;;;8.20;99.90;;;;;;5120803;27;20355;-65
2023/03/26 07:33:12;;;;;;;;;;;8.20;99.90;;;;;;5126345;27;19911;-64
2023/03/26 07:35:41;;;;;;;;;;;8.20;99.90;;;;;;5128248;27;19965;-65
2023/03/26 07:38:25;;;;;;;;;;;8.20;99.90;;;;;;5121685;27;20009;-64
2023/03/26 07:40:57;;;;;;;;;;;8.20;99.90;;;;;;5124618;27;19919;-63
2023/03/26 07:43:43;;;;;;;;;;;8.20;99.90;;;;;;5115276;27;19916;-65
2023/03/26 07:46:12;;;;;;;;;;;8.30;99.90;;;;;;5119874;27;19919;-65
2023/03/26 07:48:46;;;;;;;;;;;8.30;99.90;;;;;;5124419;27;19911;-64
2023/03/26 07:51:12;;;;;;;;;;;8.40;99.90;;;;;;5124585;27;20336;-64
2023/03/26 07:53:38;;;;;;;;;;;8.30;99.90;;;;;;5129688;27;19998;-64
2023/03/26 07:56:06;;;;;;;;;;;8.30;99.90;;;;;;5128648;27;19911;-64
2023/03/26 07:58:38;;;;;;;;;;;8.30;99.90;;;;;;5121740;27;19954;-64
2023/03/26 08:01:27;;;;;;;;;;;8.40;99.90;;;;;;5121932;27;19911;-64
2023/03/26 08:04:00;;;;;;;;;;;8.40;99.90;;;;;;5125369;27;19919;-65
2023/03/26 08:06:29;;;;;;;;;;;8.40;99.90;;;;;;5124925;27;20018;-65
2023/03/26 08:09:09;;;;;;;;;;;8.40;99.90;;;;;;5127939;27;19950;-65
2023/03/26 08:11:53;;;;;;;;;;;8.40;99.90;;;;;;5124683;27;20056;-64
2023/03/26 08:14:21;;;;;;;;;;;8.40;99.90;;;;;;5121522;27;19918;-65
2023/03/26 08:16:47;;;;;;;;;;;8.50;99.90;;;;;;5127494;27;19919;-64
2023/03/26 08:19:32;;;;;;;;;;;8.50;99.90;;;;;;5123373;27;19920;-65
2023/03/26 08:22:05;;;;;;;;;;;8.50;99.90;;;;;;5122393;27;19934;-66
2023/03/26 08:24:35;;;;;;;;;;;8.50;99.90;;;;;;5126006;27;20332;-67
2023/03/26 08:27:04;;;;;;;;;;;8.50;99.90;;;;;;5124581;27;20006;-65
2023/03/26 08:29:50;;;;;;;;;;;8.50;99.90;;;;;;5121002;27;19998;-65
2023/03/26 08:32:17;;;;;;;;;;;8.50;99.90;;;;;;5125032;27;19918;-64
2023/03/26 08:34:43;;;;;;;;;;;8.50;99.90;;;;;;5126304;27;20255;-65
2023/03/26 08:37:08;;;;;;;;;;;8.40;99.90;;;;;;5123185;27;19930;-65
2023/03/26 08:39:35;;;;;;;;;;;8.40;99.90;;;;;;5122846;27;19919;-64
2023/03/26 08:42:20;;;;;;;;;;;8.50;99.90;;;;;;5124699;27;20228;-65
2023/03/26 08:44:57;;;;;;;;;;;8.40;99.90;;;;;;5122213;27;19919;-66
2023/03/26 08:47:22;;;;;;;;;;;8.50;99.90;;;;;;5122632;27;19916;-65
2023/03/26 08:49:56;;;;;;;;;;;8.50;99.90;;;;;;5126241;27;19933;-65
2023/03/26 08:52:34;;;;;;;;;;;8.70;99.90;;;;;;5124608;27;21113;-65
2023/03/26 08:55:12;;;;;;;;;;;8.80;99.90;;;;;;5122394;27;19954;-65
2023/03/26 08:58:10;;;;;;;;;;;8.80;99.90;;;;;;5123580;27;19919;-65
2023/03/26 09:00:43;;;;;;;;;;;9.00;99.90;;;;;;5067893;27;19918;-65
2023/03/26 09:03:20;;;;;;;;;;;9.00;99.90;;;;;;5122755;27;19912;-65
2023/03/26 09:06:04;;;;;;;;;;;9.00;99.90;;;;;;5125942;27;20297;-65
2023/03/26 09:08:42;;;;;;;;;;;9.10;99.90;;;;;;5118258;27;19919;-65
2023/03/26 09:11:26;;;;;;;;;;;9.10;99.90;;;;;;5121366;27;19997;-66
2023/03/26 09:14:10;;;;;;;;;;;9.10;99.90;;;;;;5122757;27;19933;-64
2023/03/26 09:16:52;;;;;;;;;;;9.30;99.90;;;;;;5126156;27;19919;-65
2023/03/26 09:19:38;;;;;;;;;;;9.20;99.90;;;;;;5125027;27;20024;-65
2023/03/26 09:22:38;;;;;;;;;;;9.10;99.90;;;;;;5069171;27;20377;-63
2023/03/26 09:25:04;;;;;;;;;;;9.10;99.90;;;;;;5049332;28;19967;-65
2023/03/26 09:27:35;;;;;;;;;;;9.00;99.90;;;;;;5051406;28;19916;-66
2023/03/26 09:30:19;;;;;;;;;;;9.00;99.90;;;;;;5048648;28;19923;-66
2023/03/26 09:32:53;;;;;;;;;;;8.90;99.90;;;;;;5051081;28;19939;-66
2023/03/26 09:35:38;;;;;;;;;;;9.00;99.90;;;;;;5048884;28;20022;-66
2023/03/26 09:38:12;;;;;;;;;;;9.10;99.90;;;;;;5046961;28;20269;-65
2023/03/26 09:40:42;;;;;;;;;;;9.20;99.90;;;;;;5053375;28;20331;-66
2023/03/26 09:43:23;;;;;;;;;;;9.20;99.90;;;;;;5049085;28;19920;-65
2023/03/26 09:46:01;;;;;;;;;;;9.30;99.90;;;;;;5047337;28;19928;-66
2023/03/26 09:48:52;;;;;;;;;;;9.30;99.90;;;;;;5048460;28;19923;-65
2023/03/26 09:51:33;;;;;;;;;;;9.50;99.90;;;;;;5050733;28;20419;-66
2023/03/26 09:54:05;;;;;;;;;;;9.50;99.90;;;;;;5053061;28;19913;-65
2023/03/26 09:56:40;;;;;;;;;;;9.50;99.90;;;;;;5051181;28;19935;-64
2023/03/26 09:59:25;;;;;;;;;;;9.60;99.90;;;;;;5082758;28;19927;-68
2023/03/26 10:01:50;;;;;;;;;;;9.70;99.90;;;;;;5123361;28;19915;-65
2023/03/26 10:04:16;;;;;;;;;;;9.80;99.90;;;;;;5121588;28;20006;-65
2023/03/26 10:07:00;;;;;;;;;;;10.00;99.90;;;;;;5126800;28;19912;-66
2023/03/26 10:09:47;;;;;;;;;;;9.90;99.90;;;;;;5122625;28;19911;-65
2023/03/26 10:12:21;;;;;;;;;;;9.90;99.90;;;;;;5118278;28;19991;-67
2023/03/26 10:14:47;;;;;;;;;;;9.90;99.90;;;;;;5124593;28;19919;-66
2023/03/26 10:17:14;;;;;;;;;;;9.80;99.90;;;;;;5123138;28;20010;-66
2023/03/26 10:19:52;;;;;;;;;;;9.80;99.90;;;;;;5122431;28;19919;-67
2023/03/26 10:22:34;;;;;;;;;;;9.60;99.90;;;;;;5124181;28;19911;-64
2023/03/26 10:25:09;;;;;;;;;;;9.50;99.90;;;;;;5125527;28;19919;-67
2023/03/26 10:27:49;;;;;;;;;;;9.40;99.90;;;;;;5122613;28;19943;-65
2023/03/26 10:30:31;;;;;;;;;;;9.30;99.90;;;;;;5119065;28;19973;-63
2023/03/26 10:33:06;;;;;;;;;;;9.30;99.90;;;;;;5120250;28;19935;-64
2023/03/26 10:35:34;;;;;;;;;;;9.40;99.90;;;;;;5123595;28;19992;-64
2023/03/26 10:38:08;;;;;;;;;;;9.50;99.90;;;;;;5126470;28;19988;-63
2023/03/26 10:40:52;;;;;;;;;;;9.60;99.90;;;;;;5125643;28;20359;-64
2023/03/26 10:43:24;;;;;;;;;;;9.80;99.90;;;;;;5125439;27;19918;-64
2023/03/26 10:46:08;;;;;;;;;;;10.00;99.90;;;;;;5126539;27;19930;-64
2023/03/26 10:48:53;;;;;;;;;;;10.20;99.90;;;;;;5124556;27;19911;-64
2023/03/26 10:51:37;;;;;;;;;;;10.40;99.90;;;;;;5123942;27;19973;-64
2023/03/26 10:54:09;;;;;;;;;;;10.30;99.90;;;;;;5130506;27;19912;-64
2023/03/26 10:56:39;;;;;;;;;;;10.40;99.90;;;;;;5133914;27;19919;-64
2023/03/26 10:59:07;;;;;;;;;;;10.40;99.90;;;;;;5131252;27;19919;-64
2023/03/26 11:01:49;;;;;;;;;;;10.40;99.90;;;;;;5133875;27;19954;-63
2023/03/26 11:04:21;;;;;;;;;;;10.40;99.90;;;;;;5126989;27;19980;-64
2023/03/26 11:06:58;;;;;;;;;;;10.20;99.90;;;;;;5120184;27;19916;-63
2023/03/26 11:09:31;;;;;;;;;;;10.10;99.90;;;;;;5125119;27;19916;-65
2023/03/26 11:12:03;;;;;;;;;;;10.20;99.90;;;;;;5126911;27;19915;-64
2023/03/26 11:14:35;;;;;;;;;;;10.20;99.90;;;;;;5097996;28;19919;-63
2023/03/26 11:17:10;;;;;;;;;;;10.00;99.90;;;;;;5126510;27;20387;-64
2023/03/26 11:19:46;;;;;;;;;;;10.20;99.90;;;;;;5124143;27;19933;-63
2023/03/26 11:22:30;;;;;;;;;;;10.50;99.90;;;;;;5126032;27;19920;-63
2023/03/26 11:24:56;;;;;;;;;;;10.50;99.90;;;;;;5132099;27;19954;-65
2023/03/26 11:27:24;;;;;;;;;;;10.50;99.90;;;;;;5128979;27;20335;-64
2023/03/26 11:29:53;;;;;;;;;;;10.40;99.90;;;;;;5132571;27;19912;-64
2023/03/26 11:32:29;;;;;;;;;;;10.40;99.90;;;;;;5131576;27;19919;-64
2023/03/26 11:35:01;;;;;;;;;;;10.30;99.90;;;;;;5127708;27;19964;-63
2023/03/26 11:37:26;;;;;;;;;;;10.30;99.90;;;;;;5131507;27;19918;-63
2023/03/26 11:39:53;;;;;;;;;;;10.50;99.90;;;;;;5132979;27;19915;-65
2023/03/26 11:42:21;;;;;;;;;;;10.40;99.90;;;;;;5131316;27;20260;-63
2023/03/26 11:44:51;;;;;;;;;;;10.20;99.90;;;;;;5131324;27;20486;-64
2023/03/26 11:47:20;;;;;;;;;;;10.50;99.90;;;;;;5127835;27;20263;-65
2023/03/26 11:49:46;;;;;;;;;;;10.70;99.90;;;;;;5132910;27;20040;-64
2023/03/26 11:52:14;;;;;;;;;;;10.70;99.90;;;;;;5130236;27;20281;-64
2023/03/26 11:54:42;;;;;;;;;;;10.60;99.90;;;;;;5131988;27;20430;-64
2023/03/26 11:57:09;;;;;;;;;;;10.50;99.90;;;;;;5129091;27;19911;-64
2023/03/26 11:59:37;;;;;;;;;;;10.60;99.90;;;;;;5143288;27;19920;-64
2023/03/26 12:02:03;;;;;;;;;;;10.70;99.90;;;;;;5131609;27;19915;-65
2023/03/26 12:04:35;;;;;;;;;;;10.80;99.90;;;;;;5131973;27;19918;-64
2023/03/26 12:07:06;;;;;;;;;;;11.00;99.90;;;;;;5130828;27;19912;-64
2023/03/26 12:09:32;;;;;;;;;;;11.10;99.90;;;;;;5125921;27;19912;-64
2023/03/26 12:12:02;;;;;;;;;;;11.10;99.90;;;;;;5131760;27;19922;-64
2023/03/26 12:14:29;;;;;;;;;;;11.20;99.90;;;;;;5129605;27;19912;-64
2023/03/26 12:17:03;;;;;;;;;;;11.20;99.90;;;;;;5139517;27;19918;-64
2023/03/26 12:19:40;;;;;;;;;;;11.00;99.90;;;;;;5132352;27;19919;-64
2023/03/26 12:22:25;;;;;;;;;;;11.10;99.90;;;;;;5123597;27;19911;-63
2023/03/26 12:25:00;;;;;;;;;;;11.10;99.90;;;;;;5119939;27;19911;-63
2023/03/26 12:27:29;;;;;;;;;;;11.20;99.90;;;;;;5135574;27;19911;-64
2023/03/26 12:30:07;;;;;;;;;;;11.40;99.90;;;;;;5132105;27;19964;-64
2023/03/26 12:32:38;;;;;;;;;;;11.60;99.90;;;;;;5132191;27;20373;-64
2023/03/26 12:35:06;;;;;;;;;;;11.70;99.90;;;;;;5125332;27;19912;-65
2023/03/26 12:37:36;;;;;;;;;;;11.70;99.90;;;;;;5132217;27;20423;-65
2023/03/26 12:40:26;;;;;;;;;;;11.80;99.90;;;;;;5132059;27;20049;-63
2023/03/26 12:42:52;;;;;;;;;;;12.00;99.90;;;;;;5123630;27;19954;-64
2023/03/26 12:45:22;;;;;;;;;;;12.30;99.90;;;;;;5129852;27;19919;-64
2023/03/26 12:47:48;;;;;;;;;;;12.60;99.90;;;;;;5132148;27;19912;-64
2023/03/26 12:50:14;;;;;;;;;;;12.80;99.90;;;;;;5130072;27;19927;-63
2023/03/26 12:52:43;;;;;;;;;;;12.90;99.90;;;;;;5131749;27;19956;-63
2023/03/26 12:55:09;;;;;;;;;;;12.80;99.90;;;;;;5128832;27;19911;-64
2023/03/26 12:57:37;;;;;;;;;;;12.60;99.90;;;;;;5112637;27;20323;-64
2023/03/26 13:00:22;;;;;;;;;;;12.60;99.90;;;;;;5131414;27;19961;-63
2023/03/26 13:02:59;;;;;;;;;;;12.60;99.90;;;;;;5121201;27;20355;-63
2023/03/26 13:05:25;;;;;;;;;;;12.50;99.90;;;;;;5118362;27;19955;-65
2023/03/26 13:08:03;;;;;;;;;;;12.60;99.90;;;;;;5120941;27;19969;-62
2023/03/26 13:10:29;;;;;;;;;;;12.40;99.90;;;;;;5114365;27;19924;-63
2023/03/26 13:13:08;;;;;;;;;;;12.70;99.90;;;;;;5117774;27;19944;-60
2023/03/26 13:15:43;;;;;;;;;;;12.50;99.90;;;;;;5124659;27;19957;-63
2023/03/26 13:18:18;;;;;;;;;;;12.60;99.90;;;;;;5119249;27;19975;-62
2023/03/26 13:20:46;;;;;;;;;;;12.80;99.90;;;;;;5120009;27;20299;-62
2023/03/26 13:23:41;;;;;;;;;;;13.30;99.90;;;;;;5121597;27;19998;-63
2023/03/26 13:26:21;;;;;;;;;;;14.10;99.90;;;;;;5099308;27;19916;-63
2023/03/26 13:28:55;;;;;;;;;;;14.30;99.90;;;;;;5121685;27;20003;-61
2023/03/26 13:31:27;;;;;;;;;;;14.10;99.90;;;;;;5132391;27;19919;-63
2023/03/26 13:34:16;;;;;;;;;;;13.70;99.90;;;;;;5122128;27;19915;-64
2023/03/26 13:36:42;;;;;;;;;;;13.10;99.90;;;;;;5112525;27;19957;-64
2023/03/26 13:39:20;;;;;;;;;;;12.50;99.90;;;;;;5100900;28;19931;-64
2023/03/26 13:41:48;;;;;;;;;;;12.20;99.90;;;;;;5116719;27;19918;-64
2023/03/26 13:44:29;;;;;;;;;;;12.00;99.90;;;;;;5120792;27;19920;-64
2023/03/26 13:46:59;;;;;;;;;;;11.80;99.90;;;;;;5116445;27;19934;-64
2023/03/26 13:49:39;;;;;;;;;;;11.50;99.90;;;;;;5119918;27;20271;-67
2023/03/26 13:52:19;;;;;;;;;;;11.40;99.90;;;;;;5128507;27;20267;-64
2023/03/26 13:54:50;;;;;;;;;;;11.10;99.90;;;;;;5122456;28;19918;-64
2023/03/26 13:57:16;;;;;;;;;;;11.00;99.90;;;;;;5120911;28;19912;-64
2023/03/26 13:59:46;;;;;;;;;;;11.00;99.90;;;;;;5123988;27;19927;-63
2023/03/26 14:02:18;;;;;;;;;;;11.40;99.90;;;;;;5123335;28;20338;-64
2023/03/26 14:04:48;;;;;;;;;;;11.80;99.90;;;;;;5123711;28;20402;-64
2023/03/26 14:07:19;;;;;;;;;;;12.00;99.90;;;;;;5118501;27;19924;-63
2023/03/26 14:09:47;;;;;;;;;;;11.80;99.90;;;;;;5120260;27;19916;-62
2023/03/26 14:12:21;;;;;;;;;;;11.70;99.90;;;;;;5119748;27;19915;-64
2023/03/26 14:14:51;;;;;;;;;;;11.70;99.90;;;;;;5116906;28;19969;-64
2023/03/26 14:17:20;;;;;;;;;;;11.60;99.90;;;;;;5124131;27;19942;-63
2023/03/26 14:20:21;;;;;;;;;;;11.60;99.90;;;;;;5127306;27;19927;-63
2023/03/26 14:22:55;;;;;;;;;;;11.20;99.90;;;;;;5029249;28;19913;-63
2023/03/26 14:25:20;;;;;;;;;;;11.20;99.90;;;;;;5034830;28;20725;-63
2023/03/26 14:28:09;;;;;;;;;;;11.20;99.90;;;;;;5035683;28;20008;-63
2023/03/26 14:30:38;;;;;;;;;;;11.20;99.90;;;;;;5019395;28;20358;-64
2023/03/26 14:33:09;;;;;;;;;;;11.00;99.90;;;;;;5031524;28;19999;-63
2023/03/26 14:35:39;;;;;;;;;;;11.10;99.90;;;;;;5034935;28;19913;-63
2023/03/26 14:38:27;;;;;;;;;;;11.20;99.90;;;;;;5031127;28;19956;-63
2023/03/26 14:40:59;;;;;;;;;;;11.30;99.90;;;;;;5035598;28;19923;-64
2023/03/26 14:43:30;;;;;;;;;;;11.60;99.90;;;;;;5035099;28;19917;-63
2023/03/26 14:45:55;;;;;;;;;;;11.50;99.90;;;;;;5035896;28;20012;-63